sensor_id;sensor_type;location;lat;lon;timestamp;P1;durP1;ratioP1;P2;durP2;ratioP2
51489;SDS011;57752;53.574;9.736;2023-08-20T00:01:37;24.55;;;12.07;;
51489;SDS011;57752;53.574;9.736;2023-08-20T00:06:37;28.52;;;11.27;;
51489;SDS011;57752;53.574;9.736;2023-08-20T00:11:38;29.27;;;12.30;;
51489;SDS011;57752;53.574;9.736;2023-08-20T00:16:38;29.38;;;13.63;;
51489;SDS011;57752;53.574;9.736;2023-08-20T00:21:41;27.88;;;11.20;;
51489;SDS011;57752;53.574;9.736;2023-08-20T00:26:42;29.30;;;13.43;;
51489;SDS011;57752;53.574;9.736;2023-08-20T00:31:42;33.70;;;15.18;;
51489;SDS011;57752;53.574;9.736;2023-08-20T00:36:43;40.85;;;16.27;;
51489;SDS011;57752;53.574;9.736;2023-08-20T00:41:43;28.45;;;11.63;;
51489;SDS011;57752;53.574;9.736;2023-08-20T00:46:43;26.85;;;11.43;;
51489;SDS011;57752;53.574;9.736;2023-08-20T00:51:43;33.08;;;14.25;;
51489;SDS011;57752;53.574;9.736;2023-08-20T00:56:43;23.05;;;11.38;;
51489;SDS011;57752;53.574;9.736;2023-08-20T01:01:44;31.20;;;12.27;;
51489;SDS011;57752;53.574;9.736;2023-08-20T01:06:53;28.13;;;11.70;;
51489;SDS011;57752;53.574;9.736;2023-08-20T01:11:56;27.42;;;9.65;;
51489;SDS011;57752;53.574;9.736;2023-08-20T01:22:04;24.63;;;10.23;;
51489;SDS011;57752;53.574;9.736;2023-08-20T01:27:14;30.77;;;12.50;;
51489;SDS011;57752;53.574;9.736;2023-08-20T01:32:18;28.23;;;11.85;;
51489;SDS011;57752;53.574;9.736;2023-08-20T01:37:18;27.63;;;11.27;;
51489;SDS011;57752;53.574;9.736;2023-08-20T01:42:18;21.58;;;9.15;;
51489;SDS011;57752;53.574;9.736;2023-08-20T01:47:19;22.45;;;9.80;;
51489;SDS011;57752;53.574;9.736;2023-08-20T01:52:19;23.42;;;9.50;;
51489;SDS011;57752;53.574;9.736;2023-08-20T01:57:19;26.77;;;11.63;;
51489;SDS011;57752;53.574;9.736;2023-08-20T02:02:19;22.90;;;10.18;;
51489;SDS011;57752;53.574;9.736;2023-08-20T02:07:20;23.05;;;9.75;;
51489;SDS011;57752;53.574;9.736;2023-08-20T02:12:20;24.20;;;10.27;;
51489;SDS011;57752;53.574;9.736;2023-08-20T02:17:20;22.95;;;9.90;;
51489;SDS011;57752;53.574;9.736;2023-08-20T02:22:20;25.90;;;11.70;;
51489;SDS011;57752;53.574;9.736;2023-08-20T02:27:21;32.67;;;12.48;;
51489;SDS011;57752;53.574;9.736;2023-08-20T02:32:21;22.70;;;10.17;;
51489;SDS011;57752;53.574;9.736;2023-08-20T02:37:21;35.83;;;12.90;;
51489;SDS011;57752;53.574;9.736;2023-08-20T02:42:21;92.90;;;17.02;;
51489;SDS011;57752;53.574;9.736;2023-08-20T02:47:21;40.47;;;13.27;;
51489;SDS011;57752;53.574;9.736;2023-08-20T02:52:21;38.90;;;15.70;;
51489;SDS011;57752;53.574;9.736;2023-08-20T02:57:22;45.40;;;13.40;;
51489;SDS011;57752;53.574;9.736;2023-08-20T03:02:22;96.03;;;19.83;;
51489;SDS011;57752;53.574;9.736;2023-08-20T03:07:22;137.15;;;19.90;;
51489;SDS011;57752;53.574;9.736;2023-08-20T03:12:22;139.10;;;16.50;;
51489;SDS011;57752;53.574;9.736;2023-08-20T03:17:22;73.45;;;14.13;;
51489;SDS011;57752;53.574;9.736;2023-08-20T03:22:23;51.80;;;10.02;;
51489;SDS011;57752;53.574;9.736;2023-08-20T03:27:23;50.35;;;9.10;;
51489;SDS011;57752;53.574;9.736;2023-08-20T03:32:24;16.67;;;8.20;;
51489;SDS011;57752;53.574;9.736;2023-08-20T03:37:24;80.82;;;13.50;;
51489;SDS011;57752;53.574;9.736;2023-08-20T03:42:25;57.78;;;11.43;;
51489;SDS011;57752;53.574;9.736;2023-08-20T03:47:25;70.30;;;11.30;;
51489;SDS011;57752;53.574;9.736;2023-08-20T03:52:25;28.92;;;8.07;;
51489;SDS011;57752;53.574;9.736;2023-08-20T03:57:25;41.67;;;9.88;;
51489;SDS011;57752;53.574;9.736;2023-08-20T04:02:25;14.80;;;7.57;;
51489;SDS011;57752;53.574;9.736;2023-08-20T04:07:25;29.30;;;8.38;;
51489;SDS011;57752;53.574;9.736;2023-08-20T04:12:26;18.92;;;5.97;;
51489;SDS011;57752;53.574;9.736;2023-08-20T04:17:26;40.05;;;8.50;;
51489;SDS011;57752;53.574;9.736;2023-08-20T04:22:26;22.13;;;10.43;;
51489;SDS011;57752;53.574;9.736;2023-08-20T04:27:28;30.73;;;9.00;;
51489;SDS011;57752;53.574;9.736;2023-08-20T04:32:28;53.95;;;11.23;;
51489;SDS011;57752;53.574;9.736;2023-08-20T04:37:29;18.65;;;9.07;;
51489;SDS011;57752;53.574;9.736;2023-08-20T04:42:29;27.02;;;8.45;;
51489;SDS011;57752;53.574;9.736;2023-08-20T04:47:29;26.70;;;9.55;;
51489;SDS011;57752;53.574;9.736;2023-08-20T04:52:29;28.55;;;8.95;;
51489;SDS011;57752;53.574;9.736;2023-08-20T04:57:29;86.15;;;14.00;;
51489;SDS011;57752;53.574;9.736;2023-08-20T05:02:29;29.90;;;7.72;;
51489;SDS011;57752;53.574;9.736;2023-08-20T05:07:29;36.92;;;11.80;;
51489;SDS011;57752;53.574;9.736;2023-08-20T05:12:30;32.95;;;13.45;;
51489;SDS011;57752;53.574;9.736;2023-08-20T05:17:30;135.20;;;18.65;;
51489;SDS011;57752;53.574;9.736;2023-08-20T05:22:30;59.83;;;14.85;;
51489;SDS011;57752;53.574;9.736;2023-08-20T05:27:30;29.95;;;10.45;;
51489;SDS011;57752;53.574;9.736;2023-08-20T05:32:30;21.83;;;11.68;;
51489;SDS011;57752;53.574;9.736;2023-08-20T05:37:30;45.42;;;13.20;;
51489;SDS011;57752;53.574;9.736;2023-08-20T05:42:31;42.10;;;12.18;;
51489;SDS011;57752;53.574;9.736;2023-08-20T05:47:31;38.38;;;13.05;;
51489;SDS011;57752;53.574;9.736;2023-08-20T05:52:31;38.17;;;12.40;;
51489;SDS011;57752;53.574;9.736;2023-08-20T05:57:31;26.73;;;10.88;;
51489;SDS011;57752;53.574;9.736;2023-08-20T06:02:31;21.92;;;9.55;;
51489;SDS011;57752;53.574;9.736;2023-08-20T06:07:31;72.72;;;16.88;;
51489;SDS011;57752;53.574;9.736;2023-08-20T06:12:32;54.47;;;14.75;;
51489;SDS011;57752;53.574;9.736;2023-08-20T06:17:32;34.17;;;11.90;;
51489;SDS011;57752;53.574;9.736;2023-08-20T06:22:32;27.60;;;12.32;;
51489;SDS011;57752;53.574;9.736;2023-08-20T06:27:32;29.30;;;14.93;;
51489;SDS011;57752;53.574;9.736;2023-08-20T06:32:32;40.50;;;17.52;;
51489;SDS011;57752;53.574;9.736;2023-08-20T06:37:32;32.55;;;16.42;;
51489;SDS011;57752;53.574;9.736;2023-08-20T06:42:33;28.88;;;14.25;;
51489;SDS011;57752;53.574;9.736;2023-08-20T06:47:33;27.80;;;14.05;;
51489;SDS011;57752;53.574;9.736;2023-08-20T06:52:33;26.75;;;13.55;;
51489;SDS011;57752;53.574;9.736;2023-08-20T06:57:33;29.15;;;15.18;;
51489;SDS011;57752;53.574;9.736;2023-08-20T07:02:33;28.08;;;14.30;;
51489;SDS011;57752;53.574;9.736;2023-08-20T07:07:33;23.02;;;11.50;;
51489;SDS011;57752;53.574;9.736;2023-08-20T07:12:33;25.98;;;13.15;;
51489;SDS011;57752;53.574;9.736;2023-08-20T07:17:34;21.85;;;12.00;;
51489;SDS011;57752;53.574;9.736;2023-08-20T07:22:34;21.48;;;11.43;;
51489;SDS011;57752;53.574;9.736;2023-08-20T07:27:34;19.55;;;10.82;;
51489;SDS011;57752;53.574;9.736;2023-08-20T07:32:34;17.95;;;10.27;;
51489;SDS011;57752;53.574;9.736;2023-08-20T07:37:34;22.17;;;11.32;;
51489;SDS011;57752;53.574;9.736;2023-08-20T07:42:36;21.45;;;9.80;;
51489;SDS011;57752;53.574;9.736;2023-08-20T07:47:36;19.17;;;9.43;;
51489;SDS011;57752;53.574;9.736;2023-08-20T07:52:37;19.48;;;8.80;;
51489;SDS011;57752;53.574;9.736;2023-08-20T07:57:37;18.70;;;8.88;;
51489;SDS011;57752;53.574;9.736;2023-08-20T08:02:37;15.35;;;7.65;;
51489;SDS011;57752;53.574;9.736;2023-08-20T08:07:37;15.38;;;6.55;;
51489;SDS011;57752;53.574;9.736;2023-08-20T08:12:37;14.40;;;6.87;;
51489;SDS011;57752;53.574;9.736;2023-08-20T08:17:37;16.85;;;6.50;;
51489;SDS011;57752;53.574;9.736;2023-08-20T08:22:38;15.63;;;5.80;;
51489;SDS011;57752;53.574;9.736;2023-08-20T08:27:38;14.80;;;5.93;;
51489;SDS011;57752;53.574;9.736;2023-08-20T08:32:38;14.65;;;5.15;;
51489;SDS011;57752;53.574;9.736;2023-08-20T08:37:38;13.95;;;5.20;;
51489;SDS011;57752;53.574;9.736;2023-08-20T08:42:39;15.30;;;5.53;;
51489;SDS011;57752;53.574;9.736;2023-08-20T08:47:40;14.55;;;5.28;;
51489;SDS011;57752;53.574;9.736;2023-08-20T08:52:41;16.02;;;5.10;;
51489;SDS011;57752;53.574;9.736;2023-08-20T08:57:41;13.40;;;4.80;;
51489;SDS011;57752;53.574;9.736;2023-08-20T09:02:41;16.73;;;5.78;;
51489;SDS011;57752;53.574;9.736;2023-08-20T09:07:42;12.95;;;4.68;;
51489;SDS011;57752;53.574;9.736;2023-08-20T09:12:43;15.48;;;5.03;;
51489;SDS011;57752;53.574;9.736;2023-08-20T09:17:44;15.38;;;4.50;;
51489;SDS011;57752;53.574;9.736;2023-08-20T09:22:48;15.88;;;4.70;;
51489;SDS011;57752;53.574;9.736;2023-08-20T09:27:48;12.52;;;4.20;;
51489;SDS011;57752;53.574;9.736;2023-08-20T09:38:07;16.23;;;4.30;;
51489;SDS011;57752;53.574;9.736;2023-08-20T09:43:07;12.63;;;3.65;;
51489;SDS011;57752;53.574;9.736;2023-08-20T09:48:08;12.65;;;3.95;;
51489;SDS011;57752;53.574;9.736;2023-08-20T09:53:16;11.93;;;3.58;;
51489;SDS011;57752;53.574;9.736;2023-08-20T09:58:17;12.73;;;3.80;;
51489;SDS011;57752;53.574;9.736;2023-08-20T10:03:21;13.93;;;3.88;;
51489;SDS011;57752;53.574;9.736;2023-08-20T10:08:21;14.67;;;3.87;;
51489;SDS011;57752;53.574;9.736;2023-08-20T10:13:22;14.40;;;4.03;;
51489;SDS011;57752;53.574;9.736;2023-08-20T10:18:22;14.13;;;3.90;;
51489;SDS011;57752;53.574;9.736;2023-08-20T10:23:22;14.07;;;4.03;;
51489;SDS011;57752;53.574;9.736;2023-08-20T10:28:25;14.88;;;3.92;;
51489;SDS011;57752;53.574;9.736;2023-08-20T10:33:26;13.97;;;3.60;;
51489;SDS011;57752;53.574;9.736;2023-08-20T10:38:27;13.98;;;3.50;;
51489;SDS011;57752;53.574;9.736;2023-08-20T10:43:37;12.77;;;3.80;;
51489;SDS011;57752;53.574;9.736;2023-08-20T10:48:38;11.45;;;3.63;;
51489;SDS011;57752;53.574;9.736;2023-08-20T10:53:39;12.60;;;3.40;;
51489;SDS011;57752;53.574;9.736;2023-08-20T10:58:46;12.73;;;3.43;;
51489;SDS011;57752;53.574;9.736;2023-08-20T11:03:47;10.52;;;3.30;;
51489;SDS011;57752;53.574;9.736;2023-08-20T11:13:48;11.55;;;3.58;;
51489;SDS011;57752;53.574;9.736;2023-08-20T11:18:48;13.93;;;3.53;;
51489;SDS011;57752;53.574;9.736;2023-08-20T11:23:51;10.18;;;3.40;;
51489;SDS011;57752;53.574;9.736;2023-08-20T11:28:51;10.20;;;3.60;;
51489;SDS011;57752;53.574;9.736;2023-08-20T11:33:51;11.48;;;3.35;;
51489;SDS011;57752;53.574;9.736;2023-08-20T11:38:52;12.43;;;3.60;;
51489;SDS011;57752;53.574;9.736;2023-08-20T11:43:53;12.97;;;3.63;;
51489;SDS011;57752;53.574;9.736;2023-08-20T11:49:03;14.25;;;4.00;;
51489;SDS011;57752;53.574;9.736;2023-08-20T11:54:07;11.23;;;3.88;;
51489;SDS011;57752;53.574;9.736;2023-08-20T11:59:08;11.70;;;3.30;;
51489;SDS011;57752;53.574;9.736;2023-08-20T12:04:10;11.93;;;3.45;;
51489;SDS011;57752;53.574;9.736;2023-08-20T12:09:20;12.98;;;3.80;;
51489;SDS011;57752;53.574;9.736;2023-08-20T12:14:23;12.13;;;3.83;;
51489;SDS011;57752;53.574;9.736;2023-08-20T12:19:24;13.03;;;3.30;;
51489;SDS011;57752;53.574;9.736;2023-08-20T12:24:24;13.40;;;3.37;;
51489;SDS011;57752;53.574;9.736;2023-08-20T12:29:25;10.82;;;3.38;;
51489;SDS011;57752;53.574;9.736;2023-08-20T12:34:25;10.68;;;3.55;;
51489;SDS011;57752;53.574;9.736;2023-08-20T12:39:26;12.18;;;3.55;;
51489;SDS011;57752;53.574;9.736;2023-08-20T12:44:26;10.85;;;3.50;;
51489;SDS011;57752;53.574;9.736;2023-08-20T12:49:26;11.15;;;3.42;;
51489;SDS011;57752;53.574;9.736;2023-08-20T12:54:26;11.70;;;3.55;;
51489;SDS011;57752;53.574;9.736;2023-08-20T12:59:26;12.20;;;3.22;;
51489;SDS011;57752;53.574;9.736;2023-08-20T13:04:26;11.95;;;3.10;;
51489;SDS011;57752;53.574;9.736;2023-08-20T13:09:27;11.20;;;3.10;;
51489;SDS011;57752;53.574;9.736;2023-08-20T13:14:28;10.47;;;3.07;;
51489;SDS011;57752;53.574;9.736;2023-08-20T13:19:28;12.85;;;3.05;;
51489;SDS011;57752;53.574;9.736;2023-08-20T13:24:28;14.65;;;3.33;;
51489;SDS011;57752;53.574;9.736;2023-08-20T13:29:28;11.07;;;2.90;;
51489;SDS011;57752;53.574;9.736;2023-08-20T13:34:28;12.10;;;3.08;;
51489;SDS011;57752;53.574;9.736;2023-08-20T13:39:29;9.73;;;2.78;;
51489;SDS011;57752;53.574;9.736;2023-08-20T13:44:29;11.07;;;2.85;;
51489;SDS011;57752;53.574;9.736;2023-08-20T13:49:29;13.23;;;3.25;;
51489;SDS011;57752;53.574;9.736;2023-08-20T13:54:29;10.90;;;3.05;;
51489;SDS011;57752;53.574;9.736;2023-08-20T13:59:31;9.90;;;3.17;;
51489;SDS011;57752;53.574;9.736;2023-08-20T14:04:31;10.50;;;2.80;;
51489;SDS011;57752;53.574;9.736;2023-08-20T14:09:31;10.57;;;2.92;;
51489;SDS011;57752;53.574;9.736;2023-08-20T14:14:34;10.80;;;2.80;;
51489;SDS011;57752;53.574;9.736;2023-08-20T14:19:34;10.57;;;2.80;;
51489;SDS011;57752;53.574;9.736;2023-08-20T14:24:34;9.43;;;2.60;;
51489;SDS011;57752;53.574;9.736;2023-08-20T14:29:35;10.13;;;2.70;;
51489;SDS011;57752;53.574;9.736;2023-08-20T14:34:35;10.30;;;2.77;;
51489;SDS011;57752;53.574;9.736;2023-08-20T14:39:35;11.23;;;3.07;;
51489;SDS011;57752;53.574;9.736;2023-08-20T14:44:35;9.98;;;2.75;;
51489;SDS011;57752;53.574;9.736;2023-08-20T14:49:35;8.48;;;2.22;;
51489;SDS011;57752;53.574;9.736;2023-08-20T14:54:36;9.65;;;2.50;;
51489;SDS011;57752;53.574;9.736;2023-08-20T14:59:36;10.05;;;2.63;;
51489;SDS011;57752;53.574;9.736;2023-08-20T15:04:36;10.80;;;2.30;;
51489;SDS011;57752;53.574;9.736;2023-08-20T15:09:36;8.57;;;2.30;;
51489;SDS011;57752;53.574;9.736;2023-08-20T15:14:36;8.40;;;2.22;;
51489;SDS011;57752;53.574;9.736;2023-08-20T15:19:36;8.40;;;2.30;;
51489;SDS011;57752;53.574;9.736;2023-08-20T15:24:37;8.55;;;2.22;;
51489;SDS011;57752;53.574;9.736;2023-08-20T15:29:37;10.05;;;2.40;;
51489;SDS011;57752;53.574;9.736;2023-08-20T15:34:37;10.27;;;2.50;;
51489;SDS011;57752;53.574;9.736;2023-08-20T15:39:38;9.60;;;2.53;;
51489;SDS011;57752;53.574;9.736;2023-08-20T15:44:38;11.80;;;2.30;;
51489;SDS011;57752;53.574;9.736;2023-08-20T15:49:39;8.90;;;2.50;;
51489;SDS011;57752;53.574;9.736;2023-08-20T15:54:39;10.77;;;2.40;;
51489;SDS011;57752;53.574;9.736;2023-08-20T15:59:39;10.90;;;2.40;;
51489;SDS011;57752;53.574;9.736;2023-08-20T16:04:40;8.13;;;2.40;;
51489;SDS011;57752;53.574;9.736;2023-08-20T16:09:40;9.07;;;2.25;;
51489;SDS011;57752;53.574;9.736;2023-08-20T16:14:40;10.38;;;2.45;;
51489;SDS011;57752;53.574;9.736;2023-08-20T16:19:41;12.25;;;2.83;;
51489;SDS011;57752;53.574;9.736;2023-08-20T16:24:41;9.85;;;2.40;;
51489;SDS011;57752;53.574;9.736;2023-08-20T16:29:41;11.98;;;2.70;;
51489;SDS011;57752;53.574;9.736;2023-08-20T16:34:41;8.38;;;2.47;;
51489;SDS011;57752;53.574;9.736;2023-08-20T16:39:41;13.25;;;3.08;;
51489;SDS011;57752;53.574;9.736;2023-08-20T16:44:42;9.45;;;2.50;;
51489;SDS011;57752;53.574;9.736;2023-08-20T16:49:42;9.02;;;2.25;;
51489;SDS011;57752;53.574;9.736;2023-08-20T16:54:46;9.27;;;2.75;;
51489;SDS011;57752;53.574;9.736;2023-08-20T16:59:46;9.40;;;2.42;;
51489;SDS011;57752;53.574;9.736;2023-08-20T17:04:46;11.60;;;2.67;;
51489;SDS011;57752;53.574;9.736;2023-08-20T17:09:46;11.10;;;2.70;;
51489;SDS011;57752;53.574;9.736;2023-08-20T17:14:47;9.10;;;2.50;;
51489;SDS011;57752;53.574;9.736;2023-08-20T17:19:47;12.05;;;2.60;;
51489;SDS011;57752;53.574;9.736;2023-08-20T17:24:47;8.70;;;2.40;;
51489;SDS011;57752;53.574;9.736;2023-08-20T17:29:47;10.50;;;2.70;;
51489;SDS011;57752;53.574;9.736;2023-08-20T17:34:48;11.90;;;3.15;;
51489;SDS011;57752;53.574;9.736;2023-08-20T17:39:48;9.85;;;2.63;;
51489;SDS011;57752;53.574;9.736;2023-08-20T17:44:48;10.77;;;2.60;;
51489;SDS011;57752;53.574;9.736;2023-08-20T17:49:49;10.45;;;2.45;;
51489;SDS011;57752;53.574;9.736;2023-08-20T17:54:49;11.60;;;2.75;;
51489;SDS011;57752;53.574;9.736;2023-08-20T17:59:49;9.40;;;2.50;;
51489;SDS011;57752;53.574;9.736;2023-08-20T18:04:50;9.50;;;2.80;;
51489;SDS011;57752;53.574;9.736;2023-08-20T18:09:51;9.30;;;2.83;;
51489;SDS011;57752;53.574;9.736;2023-08-20T18:14:51;10.05;;;2.78;;
51489;SDS011;57752;53.574;9.736;2023-08-20T18:19:51;10.93;;;3.00;;
51489;SDS011;57752;53.574;9.736;2023-08-20T18:29:54;13.18;;;3.35;;
51489;SDS011;57752;53.574;9.736;2023-08-20T18:34:54;14.80;;;3.80;;
51489;SDS011;57752;53.574;9.736;2023-08-20T18:39:54;15.52;;;3.70;;
51489;SDS011;57752;53.574;9.736;2023-08-20T18:44:54;14.32;;;3.80;;
51489;SDS011;57752;53.574;9.736;2023-08-20T18:49:54;14.10;;;4.18;;
51489;SDS011;57752;53.574;9.736;2023-08-20T18:54:55;13.82;;;3.83;;
51489;SDS011;57752;53.574;9.736;2023-08-20T18:59:55;13.57;;;3.97;;
51489;SDS011;57752;53.574;9.736;2023-08-20T19:04:55;12.75;;;3.85;;
51489;SDS011;57752;53.574;9.736;2023-08-20T19:09:55;11.30;;;3.67;;
51489;SDS011;57752;53.574;9.736;2023-08-20T19:14:56;13.35;;;3.72;;
51489;SDS011;57752;53.574;9.736;2023-08-20T19:19:56;14.85;;;3.55;;
51489;SDS011;57752;53.574;9.736;2023-08-20T19:24:56;12.95;;;3.55;;
51489;SDS011;57752;53.574;9.736;2023-08-20T19:29:57;14.27;;;3.77;;
51489;SDS011;57752;53.574;9.736;2023-08-20T19:35:00;14.88;;;3.78;;
51489;SDS011;57752;53.574;9.736;2023-08-20T19:40:00;17.88;;;4.45;;
51489;SDS011;57752;53.574;9.736;2023-08-20T19:45:00;17.02;;;4.40;;
51489;SDS011;57752;53.574;9.736;2023-08-20T19:50:01;13.20;;;4.03;;
51489;SDS011;57752;53.574;9.736;2023-08-20T19:55:01;15.75;;;4.22;;
51489;SDS011;57752;53.574;9.736;2023-08-20T20:00:03;14.40;;;4.05;;
51489;SDS011;57752;53.574;9.736;2023-08-20T20:05:09;15.10;;;4.07;;
51489;SDS011;57752;53.574;9.736;2023-08-20T20:10:10;14.88;;;4.15;;
51489;SDS011;57752;53.574;9.736;2023-08-20T20:15:10;14.45;;;4.43;;
51489;SDS011;57752;53.574;9.736;2023-08-20T20:20:11;11.40;;;4.25;;
51489;SDS011;57752;53.574;9.736;2023-08-20T20:25:11;15.35;;;4.10;;
51489;SDS011;57752;53.574;9.736;2023-08-20T20:30:12;13.05;;;4.07;;
51489;SDS011;57752;53.574;9.736;2023-08-20T20:35:12;16.70;;;5.32;;
51489;SDS011;57752;53.574;9.736;2023-08-20T20:40:12;16.48;;;4.18;;
51489;SDS011;57752;53.574;9.736;2023-08-20T20:45:12;13.10;;;4.35;;
51489;SDS011;57752;53.574;9.736;2023-08-20T20:50:13;19.40;;;5.07;;
51489;SDS011;57752;53.574;9.736;2023-08-20T20:55:14;13.57;;;4.22;;
51489;SDS011;57752;53.574;9.736;2023-08-20T21:00:15;12.48;;;4.50;;
51489;SDS011;57752;53.574;9.736;2023-08-20T21:05:16;16.42;;;5.10;;
51489;SDS011;57752;53.574;9.736;2023-08-20T21:10:17;22.15;;;5.60;;
51489;SDS011;57752;53.574;9.736;2023-08-20T21:15:17;20.08;;;5.30;;
51489;SDS011;57752;53.574;9.736;2023-08-20T21:20:17;16.90;;;4.22;;
51489;SDS011;57752;53.574;9.736;2023-08-20T21:25:17;14.73;;;5.28;;
51489;SDS011;57752;53.574;9.736;2023-08-20T21:30:17;25.48;;;5.93;;
51489;SDS011;57752;53.574;9.736;2023-08-20T21:35:18;20.92;;;7.50;;
51489;SDS011;57752;53.574;9.736;2023-08-20T21:40:18;14.43;;;5.45;;
51489;SDS011;57752;53.574;9.736;2023-08-20T21:45:18;14.27;;;5.05;;
51489;SDS011;57752;53.574;9.736;2023-08-20T21:50:20;14.03;;;4.83;;
51489;SDS011;57752;53.574;9.736;2023-08-20T21:55:20;17.10;;;5.40;;
51489;SDS011;57752;53.574;9.736;2023-08-20T22:00:20;20.30;;;6.97;;
51489;SDS011;57752;53.574;9.736;2023-08-20T22:05:20;17.60;;;6.03;;
51489;SDS011;57752;53.574;9.736;2023-08-20T22:10:21;19.73;;;6.05;;
51489;SDS011;57752;53.574;9.736;2023-08-20T22:15:21;13.88;;;4.85;;
51489;SDS011;57752;53.574;9.736;2023-08-20T22:20:21;14.43;;;5.93;;
51489;SDS011;57752;53.574;9.736;2023-08-20T22:25:21;16.75;;;6.25;;
51489;SDS011;57752;53.574;9.736;2023-08-20T22:30:21;17.77;;;6.03;;
51489;SDS011;57752;53.574;9.736;2023-08-20T22:35:22;18.90;;;6.55;;
51489;SDS011;57752;53.574;9.736;2023-08-20T22:40:22;19.60;;;6.35;;
51489;SDS011;57752;53.574;9.736;2023-08-20T22:45:22;16.27;;;6.10;;
51489;SDS011;57752;53.574;9.736;2023-08-20T22:50:22;15.98;;;5.57;;
51489;SDS011;57752;53.574;9.736;2023-08-20T22:55:23;16.05;;;5.95;;
51489;SDS011;57752;53.574;9.736;2023-08-20T23:00:23;15.82;;;6.07;;
51489;SDS011;57752;53.574;9.736;2023-08-20T23:05:23;20.77;;;6.18;;
51489;SDS011;57752;53.574;9.736;2023-08-20T23:10:23;16.10;;;5.82;;
51489;SDS011;57752;53.574;9.736;2023-08-20T23:15:23;14.13;;;5.45;;
51489;SDS011;57752;53.574;9.736;2023-08-20T23:20:24;14.77;;;5.90;;
51489;SDS011;57752;53.574;9.736;2023-08-20T23:25:24;17.15;;;6.03;;
51489;SDS011;57752;53.574;9.736;2023-08-20T23:30:24;17.95;;;5.70;;
51489;SDS011;57752;53.574;9.736;2023-08-20T23:35:25;23.33;;;7.20;;
51489;SDS011;57752;53.574;9.736;2023-08-20T23:40:25;13.95;;;5.47;;
51489;SDS011;57752;53.574;9.736;2023-08-20T23:45:25;17.08;;;5.93;;
51489;SDS011;57752;53.574;9.736;2023-08-20T23:50:25;17.73;;;6.35;;
51489;SDS011;57752;53.574;9.736;2023-08-20T23:55:25;17.63;;;6.13;;
